sensor_id;sensor_type;location;lat;lon;timestamp;P1;durP1;ratioP1;P2;durP2;ratioP2
40339;SDS011;26044;50.864;20.658;2022-08-14T00:02:05;23.65;;;12.70;;
40339;SDS011;26044;50.864;20.658;2022-08-14T00:04:33;22.88;;;11.85;;
40339;SDS011;26044;50.864;20.658;2022-08-14T00:07:10;24.92;;;12.25;;
40339;SDS011;26044;50.864;20.658;2022-08-14T00:09:39;27.40;;;12.77;;
40339;SDS011;26044;50.864;20.658;2022-08-14T00:12:28;26.52;;;13.85;;
40339;SDS011;26044;50.864;20.658;2022-08-14T00:15:18;24.15;;;12.65;;
40339;SDS011;26044;50.864;20.658;2022-08-14T00:17:47;25.92;;;13.52;;
40339;SDS011;26044;50.864;20.658;2022-08-14T00:20:20;23.15;;;13.35;;
40339;SDS011;26044;50.864;20.658;2022-08-14T00:23:01;25.73;;;13.65;;
40339;SDS011;26044;50.864;20.658;2022-08-14T00:25:43;25.80;;;14.07;;
40339;SDS011;26044;50.864;20.658;2022-08-14T00:28:30;25.55;;;13.07;;
40339;SDS011;26044;50.864;20.658;2022-08-14T00:33:29;25.17;;;13.35;;
40339;SDS011;26044;50.864;20.658;2022-08-14T00:36:17;25.42;;;13.55;;
40339;SDS011;26044;50.864;20.658;2022-08-14T00:39:04;23.42;;;12.30;;
40339;SDS011;26044;50.864;20.658;2022-08-14T00:41:32;24.42;;;12.50;;
40339;SDS011;26044;50.864;20.658;2022-08-14T00:43:59;27.40;;;13.35;;
40339;SDS011;26044;50.864;20.658;2022-08-14T00:46:26;25.50;;;12.65;;
40339;SDS011;26044;50.864;20.658;2022-08-14T00:48:58;22.92;;;12.50;;
40339;SDS011;26044;50.864;20.658;2022-08-14T00:51:27;23.40;;;12.73;;
40339;SDS011;26044;50.864;20.658;2022-08-14T00:54:04;25.50;;;13.32;;
40339;SDS011;26044;50.864;20.658;2022-08-14T00:56:46;23.20;;;12.45;;
40339;SDS011;26044;50.864;20.658;2022-08-14T00:59:14;24.20;;;12.68;;
40339;SDS011;26044;50.864;20.658;2022-08-14T01:01:41;25.00;;;12.73;;
40339;SDS011;26044;50.864;20.658;2022-08-14T01:04:09;22.30;;;11.95;;
40339;SDS011;26044;50.864;20.658;2022-08-14T01:06:57;25.10;;;13.43;;
40339;SDS011;26044;50.864;20.658;2022-08-14T01:09:24;23.67;;;12.32;;
40339;SDS011;26044;50.864;20.658;2022-08-14T01:11:53;23.83;;;12.82;;
40339;SDS011;26044;50.864;20.658;2022-08-14T01:14:28;27.90;;;13.10;;
40339;SDS011;26044;50.864;20.658;2022-08-14T01:16:55;24.35;;;12.43;;
40339;SDS011;26044;50.864;20.658;2022-08-14T01:19:25;23.67;;;12.63;;
40339;SDS011;26044;50.864;20.658;2022-08-14T01:22:15;21.75;;;11.80;;
40339;SDS011;26044;50.864;20.658;2022-08-14T01:24:44;24.20;;;12.40;;
40339;SDS011;26044;50.864;20.658;2022-08-14T01:27:15;23.95;;;13.13;;
40339;SDS011;26044;50.864;20.658;2022-08-14T01:29:51;24.25;;;12.55;;
40339;SDS011;26044;50.864;20.658;2022-08-14T01:32:28;23.63;;;13.10;;
40339;SDS011;26044;50.864;20.658;2022-08-14T01:34:55;27.52;;;13.40;;
40339;SDS011;26044;50.864;20.658;2022-08-14T01:37:43;24.23;;;12.40;;
40339;SDS011;26044;50.864;20.658;2022-08-14T01:40:25;27.20;;;13.90;;
40339;SDS011;26044;50.864;20.658;2022-08-14T01:43:10;26.50;;;13.57;;
40339;SDS011;26044;50.864;20.658;2022-08-14T01:45:40;25.75;;;13.90;;
40339;SDS011;26044;50.864;20.658;2022-08-14T01:48:13;27.45;;;15.32;;
40339;SDS011;26044;50.864;20.658;2022-08-14T01:50:46;29.20;;;15.35;;
40339;SDS011;26044;50.864;20.658;2022-08-14T01:53:13;27.83;;;15.10;;
40339;SDS011;26044;50.864;20.658;2022-08-14T01:55:40;30.23;;;16.65;;
40339;SDS011;26044;50.864;20.658;2022-08-14T01:58:07;28.52;;;14.98;;
40339;SDS011;26044;50.864;20.658;2022-08-14T02:00:47;28.05;;;15.57;;
40339;SDS011;26044;50.864;20.658;2022-08-14T02:03:24;31.95;;;16.00;;
40339;SDS011;26044;50.864;20.658;2022-08-14T02:05:56;30.17;;;15.77;;
40339;SDS011;26044;50.864;20.658;2022-08-14T02:08:29;28.38;;;14.88;;
40339;SDS011;26044;50.864;20.658;2022-08-14T02:11:00;28.33;;;14.93;;
40339;SDS011;26044;50.864;20.658;2022-08-14T02:13:46;26.80;;;14.75;;
40339;SDS011;26044;50.864;20.658;2022-08-14T02:16:35;26.65;;;15.10;;
40339;SDS011;26044;50.864;20.658;2022-08-14T02:19:08;27.73;;;14.88;;
40339;SDS011;26044;50.864;20.658;2022-08-14T02:21:38;27.75;;;14.93;;
40339;SDS011;26044;50.864;20.658;2022-08-14T02:24:14;28.25;;;15.68;;
40339;SDS011;26044;50.864;20.658;2022-08-14T02:27:02;29.35;;;14.38;;
40339;SDS011;26044;50.864;20.658;2022-08-14T02:29:49;24.55;;;13.57;;
40339;SDS011;26044;50.864;20.658;2022-08-14T02:32:26;25.83;;;14.07;;
40339;SDS011;26044;50.864;20.658;2022-08-14T02:35:02;23.02;;;12.45;;
40339;SDS011;26044;50.864;20.658;2022-08-14T02:37:41;23.55;;;12.32;;
40339;SDS011;26044;50.864;20.658;2022-08-14T02:40:13;22.80;;;12.15;;
40339;SDS011;26044;50.864;20.658;2022-08-14T02:42:41;21.73;;;11.63;;
40339;SDS011;26044;50.864;20.658;2022-08-14T02:45:23;22.23;;;11.25;;
40339;SDS011;26044;50.864;20.658;2022-08-14T02:48:04;21.15;;;10.73;;
40339;SDS011;26044;50.864;20.658;2022-08-14T02:50:52;22.20;;;11.93;;
40339;SDS011;26044;50.864;20.658;2022-08-14T02:53:19;25.38;;;13.48;;
40339;SDS011;26044;50.864;20.658;2022-08-14T02:55:46;26.25;;;13.45;;
40339;SDS011;26044;50.864;20.658;2022-08-14T02:58:13;24.67;;;14.38;;
40339;SDS011;26044;50.864;20.658;2022-08-14T03:00:55;27.42;;;14.48;;
40339;SDS011;26044;50.864;20.658;2022-08-14T03:03:23;29.30;;;14.77;;
40339;SDS011;26044;50.864;20.658;2022-08-14T03:05:51;28.42;;;15.55;;
40339;SDS011;26044;50.864;20.658;2022-08-14T03:08:19;28.30;;;15.80;;
40339;SDS011;26044;50.864;20.658;2022-08-14T03:10:46;29.63;;;15.88;;
40339;SDS011;26044;50.864;20.658;2022-08-14T03:13:16;29.73;;;16.02;;
40339;SDS011;26044;50.864;20.658;2022-08-14T03:15:46;31.10;;;16.83;;
40339;SDS011;26044;50.864;20.658;2022-08-14T03:18:22;30.10;;;16.77;;
40339;SDS011;26044;50.864;20.658;2022-08-14T03:21:02;33.00;;;17.38;;
40339;SDS011;26044;50.864;20.658;2022-08-14T03:23:31;31.20;;;16.88;;
40339;SDS011;26044;50.864;20.658;2022-08-14T03:26:04;32.95;;;17.55;;
40339;SDS011;26044;50.864;20.658;2022-08-14T03:28:45;30.75;;;17.77;;
40339;SDS011;26044;50.864;20.658;2022-08-14T03:33:41;33.72;;;17.38;;
40339;SDS011;26044;50.864;20.658;2022-08-14T03:36:12;31.38;;;16.90;;
40339;SDS011;26044;50.864;20.658;2022-08-14T03:39:00;32.63;;;17.92;;
40339;SDS011;26044;50.864;20.658;2022-08-14T03:41:51;28.75;;;16.42;;
40339;SDS011;26044;50.864;20.658;2022-08-14T03:44:20;29.75;;;17.00;;
40339;SDS011;26044;50.864;20.658;2022-08-14T03:47:07;28.70;;;16.17;;
40339;SDS011;26044;50.864;20.658;2022-08-14T03:49:37;30.33;;;16.83;;
40339;SDS011;26044;50.864;20.658;2022-08-14T03:52:07;28.13;;;16.05;;
40339;SDS011;26044;50.864;20.658;2022-08-14T03:54:54;29.73;;;16.88;;
40339;SDS011;26044;50.864;20.658;2022-08-14T03:57:21;27.42;;;14.85;;
40339;SDS011;26044;50.864;20.658;2022-08-14T03:59:49;31.75;;;16.70;;
40339;SDS011;26044;50.864;20.658;2022-08-14T04:02:15;27.77;;;15.55;;
40339;SDS011;26044;50.864;20.658;2022-08-14T04:05:03;29.88;;;16.42;;
40339;SDS011;26044;50.864;20.658;2022-08-14T04:07:38;29.50;;;16.75;;
40339;SDS011;26044;50.864;20.658;2022-08-14T04:10:15;33.70;;;16.00;;
40339;SDS011;26044;50.864;20.658;2022-08-14T04:12:56;30.50;;;17.33;;
40339;SDS011;26044;50.864;20.658;2022-08-14T04:15:29;30.77;;;16.52;;
40339;SDS011;26044;50.864;20.658;2022-08-14T04:18:16;28.85;;;16.27;;
40339;SDS011;26044;50.864;20.658;2022-08-14T04:20:44;28.92;;;15.48;;
40339;SDS011;26044;50.864;20.658;2022-08-14T04:23:20;30.95;;;17.17;;
40339;SDS011;26044;50.864;20.658;2022-08-14T04:25:55;29.73;;;15.95;;
40339;SDS011;26044;50.864;20.658;2022-08-14T04:28:21;29.85;;;16.83;;
40339;SDS011;26044;50.864;20.658;2022-08-14T04:31:09;28.20;;;16.10;;
40339;SDS011;26044;50.864;20.658;2022-08-14T04:33:41;31.50;;;18.02;;
40339;SDS011;26044;50.864;20.658;2022-08-14T04:36:09;31.77;;;17.17;;
40339;SDS011;26044;50.864;20.658;2022-08-14T04:38:42;30.27;;;16.58;;
40339;SDS011;26044;50.864;20.658;2022-08-14T04:41:28;32.80;;;17.48;;
40339;SDS011;26044;50.864;20.658;2022-08-14T04:44:16;33.30;;;16.63;;
40339;SDS011;26044;50.864;20.658;2022-08-14T04:47:02;29.58;;;16.65;;
40339;SDS011;26044;50.864;20.658;2022-08-14T04:49:48;28.70;;;15.82;;
40339;SDS011;26044;50.864;20.658;2022-08-14T04:52:22;30.95;;;16.45;;
40339;SDS011;26044;50.864;20.658;2022-08-14T04:54:50;29.95;;;16.20;;
40339;SDS011;26044;50.864;20.658;2022-08-14T04:57:19;29.90;;;16.73;;
40339;SDS011;26044;50.864;20.658;2022-08-14T04:59:48;30.42;;;16.00;;
40339;SDS011;26044;50.864;20.658;2022-08-14T05:02:16;28.35;;;16.42;;
40339;SDS011;26044;50.864;20.658;2022-08-14T05:04:43;34.80;;;18.17;;
40339;SDS011;26044;50.864;20.658;2022-08-14T05:07:22;34.57;;;17.60;;
40339;SDS011;26044;50.864;20.658;2022-08-14T05:10:09;31.88;;;17.83;;
40339;SDS011;26044;50.864;20.658;2022-08-14T05:12:47;32.95;;;18.08;;
40339;SDS011;26044;50.864;20.658;2022-08-14T05:15:34;34.38;;;18.77;;
40339;SDS011;26044;50.864;20.658;2022-08-14T05:18:08;35.42;;;19.73;;
40339;SDS011;26044;50.864;20.658;2022-08-14T05:21:00;38.25;;;19.85;;
40339;SDS011;26044;50.864;20.658;2022-08-14T05:23:49;33.80;;;19.17;;
40339;SDS011;26044;50.864;20.658;2022-08-14T05:26:18;33.37;;;19.27;;
40339;SDS011;26044;50.864;20.658;2022-08-14T05:28:47;35.05;;;19.50;;
40339;SDS011;26044;50.864;20.658;2022-08-14T05:31:14;34.55;;;20.25;;
40339;SDS011;26044;50.864;20.658;2022-08-14T05:33:46;31.38;;;18.15;;
40339;SDS011;26044;50.864;20.658;2022-08-14T05:36:22;35.15;;;18.75;;
40339;SDS011;26044;50.864;20.658;2022-08-14T05:38:50;31.52;;;17.52;;
40339;SDS011;26044;50.864;20.658;2022-08-14T05:41:18;31.77;;;18.65;;
40339;SDS011;26044;50.864;20.658;2022-08-14T05:43:47;30.70;;;17.95;;
40339;SDS011;26044;50.864;20.658;2022-08-14T05:46:16;31.65;;;17.92;;
40339;SDS011;26044;50.864;20.658;2022-08-14T05:48:47;31.80;;;16.95;;
40339;SDS011;26044;50.864;20.658;2022-08-14T05:51:19;32.67;;;17.02;;
40339;SDS011;26044;50.864;20.658;2022-08-14T05:53:47;28.88;;;16.10;;
40339;SDS011;26044;50.864;20.658;2022-08-14T05:56:33;29.25;;;16.13;;
40339;SDS011;26044;50.864;20.658;2022-08-14T05:59:02;27.10;;;15.15;;
40339;SDS011;26044;50.864;20.658;2022-08-14T06:01:30;29.85;;;16.10;;
40339;SDS011;26044;50.864;20.658;2022-08-14T06:03:57;29.92;;;15.63;;
40339;SDS011;26044;50.864;20.658;2022-08-14T06:06:24;28.80;;;14.95;;
40339;SDS011;26044;50.864;20.658;2022-08-14T06:08:51;29.42;;;15.68;;
40339;SDS011;26044;50.864;20.658;2022-08-14T06:11:19;29.83;;;16.02;;
40339;SDS011;26044;50.864;20.658;2022-08-14T06:13:56;30.38;;;17.15;;
40339;SDS011;26044;50.864;20.658;2022-08-14T06:16:23;29.33;;;16.88;;
40339;SDS011;26044;50.864;20.658;2022-08-14T06:18:50;27.48;;;15.00;;
40339;SDS011;26044;50.864;20.658;2022-08-14T06:21:19;30.13;;;15.65;;
40339;SDS011;26044;50.864;20.658;2022-08-14T06:23:47;26.73;;;15.40;;
40339;SDS011;26044;50.864;20.658;2022-08-14T06:26:14;28.23;;;15.23;;
40339;SDS011;26044;50.864;20.658;2022-08-14T06:28:47;25.73;;;16.10;;
40339;SDS011;26044;50.864;20.658;2022-08-14T06:31:17;27.15;;;15.77;;
40339;SDS011;26044;50.864;20.658;2022-08-14T06:33:45;26.60;;;14.23;;
40339;SDS011;26044;50.864;20.658;2022-08-14T06:36:32;29.80;;;15.68;;
40339;SDS011;26044;50.864;20.658;2022-08-14T06:39:01;25.63;;;15.10;;
40339;SDS011;26044;50.864;20.658;2022-08-14T06:41:33;28.35;;;14.52;;
40339;SDS011;26044;50.864;20.658;2022-08-14T06:44:20;27.33;;;14.80;;
40339;SDS011;26044;50.864;20.658;2022-08-14T06:46:56;30.02;;;15.30;;
40339;SDS011;26044;50.864;20.658;2022-08-14T06:49:24;26.40;;;15.18;;
40339;SDS011;26044;50.864;20.658;2022-08-14T06:51:52;26.42;;;13.90;;
40339;SDS011;26044;50.864;20.658;2022-08-14T06:54:19;26.02;;;15.55;;
40339;SDS011;26044;50.864;20.658;2022-08-14T06:56:46;30.48;;;16.85;;
40339;SDS011;26044;50.864;20.658;2022-08-14T06:59:19;25.75;;;14.60;;
40339;SDS011;26044;50.864;20.658;2022-08-14T07:01:47;27.98;;;15.00;;
40339;SDS011;26044;50.864;20.658;2022-08-14T07:04:42;28.17;;;15.55;;
40339;SDS011;26044;50.864;20.658;2022-08-14T07:07:34;26.85;;;14.25;;
40339;SDS011;26044;50.864;20.658;2022-08-14T07:10:05;26.45;;;13.90;;
40339;SDS011;26044;50.864;20.658;2022-08-14T07:12:42;27.17;;;15.20;;
40339;SDS011;26044;50.864;20.658;2022-08-14T07:15:27;27.67;;;14.45;;
40339;SDS011;26044;50.864;20.658;2022-08-14T07:20:25;26.02;;;14.57;;
40339;SDS011;26044;50.864;20.658;2022-08-14T07:22:56;29.45;;;15.05;;
40339;SDS011;26044;50.864;20.658;2022-08-14T07:25:34;29.05;;;13.73;;
40339;SDS011;26044;50.864;20.658;2022-08-14T07:30:45;24.33;;;13.75;;
40339;SDS011;26044;50.864;20.658;2022-08-14T07:33:17;23.83;;;13.02;;
40339;SDS011;26044;50.864;20.658;2022-08-14T07:35:49;29.20;;;13.48;;
40339;SDS011;26044;50.864;20.658;2022-08-14T07:38:24;26.15;;;13.20;;
40339;SDS011;26044;50.864;20.658;2022-08-14T07:41:01;24.70;;;11.77;;
40339;SDS011;26044;50.864;20.658;2022-08-14T07:43:39;22.90;;;12.02;;
40339;SDS011;26044;50.864;20.658;2022-08-14T07:46:09;22.92;;;12.15;;
40339;SDS011;26044;50.864;20.658;2022-08-14T07:48:38;23.52;;;12.50;;
40339;SDS011;26044;50.864;20.658;2022-08-14T07:51:06;25.03;;;12.47;;
40339;SDS011;26044;50.864;20.658;2022-08-14T07:56:06;20.83;;;11.38;;
40339;SDS011;26044;50.864;20.658;2022-08-14T07:58:55;24.10;;;11.88;;
40339;SDS011;26044;50.864;20.658;2022-08-14T08:01:23;23.27;;;12.68;;
40339;SDS011;26044;50.864;20.658;2022-08-14T08:03:55;22.35;;;11.10;;
40339;SDS011;26044;50.864;20.658;2022-08-14T08:06:28;25.05;;;12.32;;
40339;SDS011;26044;50.864;20.658;2022-08-14T08:08:56;23.77;;;12.85;;
40339;SDS011;26044;50.864;20.658;2022-08-14T08:11:32;24.77;;;11.95;;
40339;SDS011;26044;50.864;20.658;2022-08-14T08:14:03;22.35;;;11.77;;
40339;SDS011;26044;50.864;20.658;2022-08-14T08:16:44;23.52;;;11.88;;
40339;SDS011;26044;50.864;20.658;2022-08-14T08:19:16;23.63;;;11.50;;
40339;SDS011;26044;50.864;20.658;2022-08-14T08:21:44;21.65;;;11.02;;
40339;SDS011;26044;50.864;20.658;2022-08-14T08:24:12;24.90;;;11.60;;
40339;SDS011;26044;50.864;20.658;2022-08-14T08:26:45;24.92;;;11.50;;
40339;SDS011;26044;50.864;20.658;2022-08-14T08:29:17;27.30;;;12.60;;
40339;SDS011;26044;50.864;20.658;2022-08-14T08:31:53;22.58;;;11.48;;
40339;SDS011;26044;50.864;20.658;2022-08-14T08:34:20;26.40;;;12.23;;
40339;SDS011;26044;50.864;20.658;2022-08-14T08:36:49;27.80;;;13.20;;
40339;SDS011;26044;50.864;20.658;2022-08-14T08:39:17;24.13;;;13.10;;
40339;SDS011;26044;50.864;20.658;2022-08-14T08:41:48;27.35;;;13.65;;
40339;SDS011;26044;50.864;20.658;2022-08-14T08:44:19;25.27;;;13.05;;
40339;SDS011;26044;50.864;20.658;2022-08-14T08:46:58;23.77;;;12.70;;
40339;SDS011;26044;50.864;20.658;2022-08-14T08:49:37;23.90;;;13.05;;
40339;SDS011;26044;50.864;20.658;2022-08-14T08:52:24;27.60;;;13.23;;
40339;SDS011;26044;50.864;20.658;2022-08-14T08:54:57;25.83;;;13.93;;
40339;SDS011;26044;50.864;20.658;2022-08-14T08:57:26;23.65;;;13.38;;
40339;SDS011;26044;50.864;20.658;2022-08-14T08:59:59;23.95;;;12.77;;
40339;SDS011;26044;50.864;20.658;2022-08-14T09:02:35;26.98;;;11.73;;
40339;SDS011;26044;50.864;20.658;2022-08-14T09:05:02;20.77;;;11.40;;
40339;SDS011;26044;50.864;20.658;2022-08-14T09:07:29;23.52;;;11.60;;
40339;SDS011;26044;50.864;20.658;2022-08-14T09:09:56;21.27;;;11.50;;
40339;SDS011;26044;50.864;20.658;2022-08-14T09:12:28;25.42;;;12.00;;
40339;SDS011;26044;50.864;20.658;2022-08-14T09:15:03;23.45;;;11.07;;
40339;SDS011;26044;50.864;20.658;2022-08-14T09:17:37;22.77;;;12.00;;
40339;SDS011;26044;50.864;20.658;2022-08-14T09:20:11;23.65;;;12.25;;
40339;SDS011;26044;50.864;20.658;2022-08-14T09:22:51;21.95;;;11.48;;
40339;SDS011;26044;50.864;20.658;2022-08-14T09:25:20;23.17;;;11.47;;
40339;SDS011;26044;50.864;20.658;2022-08-14T09:28:07;21.77;;;11.60;;
40339;SDS011;26044;50.864;20.658;2022-08-14T09:30:35;22.48;;;11.52;;
40339;SDS011;26044;50.864;20.658;2022-08-14T09:33:26;22.58;;;12.38;;
40339;SDS011;26044;50.864;20.658;2022-08-14T09:45:15;25.83;;;14.63;;
40339;SDS011;26044;50.864;20.658;2022-08-14T09:47:52;32.47;;;17.38;;
40339;SDS011;26044;50.864;20.658;2022-08-14T09:50:27;27.73;;;17.02;;
40339;SDS011;26044;50.864;20.658;2022-08-14T09:52:59;30.15;;;17.88;;
40339;SDS011;26044;50.864;20.658;2022-08-14T09:55:31;30.38;;;17.38;;
40339;SDS011;26044;50.864;20.658;2022-08-14T10:03:27;29.27;;;18.00;;
40339;SDS011;26044;50.864;20.658;2022-08-14T10:08:43;32.00;;;19.77;;
40339;SDS011;26044;50.864;20.658;2022-08-14T10:11:18;32.80;;;20.40;;
40339;SDS011;26044;50.864;20.658;2022-08-14T10:17:00;34.63;;;21.75;;
40339;SDS011;26044;50.864;20.658;2022-08-14T10:19:31;36.08;;;20.67;;
40339;SDS011;26044;50.864;20.658;2022-08-14T10:22:02;35.13;;;21.45;;
40339;SDS011;26044;50.864;20.658;2022-08-14T10:24:54;32.45;;;21.52;;
40339;SDS011;26044;50.864;20.658;2022-08-14T10:27:22;34.53;;;22.15;;
40339;SDS011;26044;50.864;20.658;2022-08-14T10:29:55;35.97;;;21.10;;
40339;SDS011;26044;50.864;20.658;2022-08-14T10:32:26;42.75;;;21.42;;
40339;SDS011;26044;50.864;20.658;2022-08-14T10:35:14;34.78;;;22.73;;
40339;SDS011;26044;50.864;20.658;2022-08-14T10:37:44;34.97;;;21.88;;
40339;SDS011;26044;50.864;20.658;2022-08-14T10:40:15;33.35;;;22.33;;
40339;SDS011;26044;50.864;20.658;2022-08-14T10:43:16;37.13;;;22.50;;
40339;SDS011;26044;50.864;20.658;2022-08-14T10:45:52;36.87;;;22.93;;
40339;SDS011;26044;50.864;20.658;2022-08-14T10:48:59;34.30;;;21.85;;
40339;SDS011;26044;50.864;20.658;2022-08-14T10:51:30;36.97;;;23.20;;
40339;SDS011;26044;50.864;20.658;2022-08-14T10:54:04;36.67;;;24.17;;
40339;SDS011;26044;50.864;20.658;2022-08-14T10:56:53;35.30;;;23.15;;
40339;SDS011;26044;50.864;20.658;2022-08-14T10:59:21;34.20;;;23.08;;
40339;SDS011;26044;50.864;20.658;2022-08-14T11:02:00;35.15;;;22.45;;
40339;SDS011;26044;50.864;20.658;2022-08-14T11:04:28;35.13;;;22.58;;
40339;SDS011;26044;50.864;20.658;2022-08-14T11:06:56;36.90;;;22.20;;
40339;SDS011;26044;50.864;20.658;2022-08-14T11:09:23;35.08;;;21.98;;
40339;SDS011;26044;50.864;20.658;2022-08-14T11:11:57;35.47;;;21.73;;
40339;SDS011;26044;50.864;20.658;2022-08-14T11:14:54;36.05;;;23.13;;
40339;SDS011;26044;50.864;20.658;2022-08-14T11:17:29;33.70;;;22.15;;
40339;SDS011;26044;50.864;20.658;2022-08-14T11:19:58;37.25;;;23.35;;
40339;SDS011;26044;50.864;20.658;2022-08-14T11:25:16;34.50;;;20.80;;
40339;SDS011;26044;50.864;20.658;2022-08-14T11:27:46;37.05;;;23.80;;
40339;SDS011;26044;50.864;20.658;2022-08-14T11:30:15;36.40;;;22.92;;
40339;SDS011;26044;50.864;20.658;2022-08-14T11:33:07;36.08;;;22.70;;
40339;SDS011;26044;50.864;20.658;2022-08-14T11:35:36;38.05;;;21.98;;
40339;SDS011;26044;50.864;20.658;2022-08-14T11:38:13;35.90;;;23.15;;
40339;SDS011;26044;50.864;20.658;2022-08-14T11:40:42;35.88;;;22.52;;
40339;SDS011;26044;50.864;20.658;2022-08-14T11:43:12;33.60;;;22.25;;
40339;SDS011;26044;50.864;20.658;2022-08-14T11:45:40;35.03;;;22.80;;
40339;SDS011;26044;50.864;20.658;2022-08-14T11:48:14;35.00;;;21.48;;
40339;SDS011;26044;50.864;20.658;2022-08-14T11:51:01;33.58;;;21.60;;
40339;SDS011;26044;50.864;20.658;2022-08-14T11:53:38;37.50;;;21.98;;
40339;SDS011;26044;50.864;20.658;2022-08-14T11:56:11;35.25;;;21.80;;
40339;SDS011;26044;50.864;20.658;2022-08-14T11:58:38;33.78;;;22.23;;
40339;SDS011;26044;50.864;20.658;2022-08-14T12:01:08;33.15;;;20.45;;
40339;SDS011;26044;50.864;20.658;2022-08-14T12:03:43;32.20;;;19.75;;
40339;SDS011;26044;50.864;20.658;2022-08-14T12:06:22;33.33;;;19.83;;
40339;SDS011;26044;50.864;20.658;2022-08-14T12:09:04;31.13;;;19.70;;
40339;SDS011;26044;50.864;20.658;2022-08-14T12:11:41;34.45;;;21.52;;
40339;SDS011;26044;50.864;20.658;2022-08-14T12:14:13;32.50;;;20.15;;
40339;SDS011;26044;50.864;20.658;2022-08-14T12:17:01;32.75;;;20.05;;
40339;SDS011;26044;50.864;20.658;2022-08-14T12:19:45;31.70;;;20.08;;
40339;SDS011;26044;50.864;20.658;2022-08-14T12:25:03;33.53;;;20.38;;
40339;SDS011;26044;50.864;20.658;2022-08-14T12:33:21;31.65;;;19.90;;
40339;SDS011;26044;50.864;20.658;2022-08-14T12:36:02;29.63;;;17.73;;
40339;SDS011;26044;50.864;20.658;2022-08-14T12:38:46;28.95;;;18.08;;
40339;SDS011;26044;50.864;20.658;2022-08-14T12:41:20;29.90;;;16.27;;
40339;SDS011;26044;50.864;20.658;2022-08-14T12:44:03;31.80;;;18.95;;
40339;SDS011;26044;50.864;20.658;2022-08-14T12:46:38;31.60;;;18.15;;
40339;SDS011;26044;50.864;20.658;2022-08-14T12:49:13;29.17;;;16.52;;
40339;SDS011;26044;50.864;20.658;2022-08-14T12:51:43;27.45;;;17.25;;
40339;SDS011;26044;50.864;20.658;2022-08-14T12:54:21;29.37;;;16.83;;
40339;SDS011;26044;50.864;20.658;2022-08-14T12:57:07;28.00;;;17.52;;
40339;SDS011;26044;50.864;20.658;2022-08-14T12:59:45;28.30;;;16.40;;
40339;SDS011;26044;50.864;20.658;2022-08-14T13:02:35;27.30;;;17.75;;
40339;SDS011;26044;50.864;20.658;2022-08-14T13:05:08;31.70;;;17.42;;
40339;SDS011;26044;50.864;20.658;2022-08-14T13:07:35;30.58;;;18.10;;
40339;SDS011;26044;50.864;20.658;2022-08-14T13:10:12;33.00;;;19.70;;
40339;SDS011;26044;50.864;20.658;2022-08-14T13:13:01;31.00;;;19.60;;
40339;SDS011;26044;50.864;20.658;2022-08-14T13:15:41;29.65;;;17.42;;
40339;SDS011;26044;50.864;20.658;2022-08-14T13:20:41;29.50;;;17.50;;
40339;SDS011;26044;50.864;20.658;2022-08-14T13:23:20;31.00;;;17.98;;
40339;SDS011;26044;50.864;20.658;2022-08-14T13:25:57;29.98;;;17.52;;
40339;SDS011;26044;50.864;20.658;2022-08-14T13:28:26;29.67;;;16.92;;
40339;SDS011;26044;50.864;20.658;2022-08-14T13:31:00;31.75;;;16.90;;
40339;SDS011;26044;50.864;20.658;2022-08-14T13:33:36;27.75;;;15.98;;
40339;SDS011;26044;50.864;20.658;2022-08-14T13:36:06;27.88;;;16.20;;
40339;SDS011;26044;50.864;20.658;2022-08-14T13:38:34;29.88;;;17.70;;
40339;SDS011;26044;50.864;20.658;2022-08-14T13:41:01;30.02;;;17.38;;
40339;SDS011;26044;50.864;20.658;2022-08-14T13:43:28;28.58;;;15.75;;
40339;SDS011;26044;50.864;20.658;2022-08-14T13:46:01;31.52;;;16.83;;
40339;SDS011;26044;50.864;20.658;2022-08-14T13:48:29;28.65;;;16.90;;
40339;SDS011;26044;50.864;20.658;2022-08-14T13:51:02;28.00;;;16.15;;
40339;SDS011;26044;50.864;20.658;2022-08-14T13:53:37;28.92;;;16.08;;
40339;SDS011;26044;50.864;20.658;2022-08-14T13:56:35;27.92;;;15.75;;
40339;SDS011;26044;50.864;20.658;2022-08-14T13:59:05;30.63;;;15.73;;
40339;SDS011;26044;50.864;20.658;2022-08-14T14:01:33;30.60;;;17.65;;
40339;SDS011;26044;50.864;20.658;2022-08-14T14:04:09;30.38;;;17.92;;
40339;SDS011;26044;50.864;20.658;2022-08-14T14:06:46;29.55;;;16.65;;
40339;SDS011;26044;50.864;20.658;2022-08-14T14:09:14;25.88;;;14.93;;
40339;SDS011;26044;50.864;20.658;2022-08-14T14:11:46;27.55;;;15.20;;
40339;SDS011;26044;50.864;20.658;2022-08-14T14:14:18;28.15;;;16.08;;
40339;SDS011;26044;50.864;20.658;2022-08-14T14:17:06;26.92;;;15.63;;
40339;SDS011;26044;50.864;20.658;2022-08-14T14:19:37;26.35;;;16.42;;
40339;SDS011;26044;50.864;20.658;2022-08-14T14:22:09;30.33;;;16.95;;
40339;SDS011;26044;50.864;20.658;2022-08-14T14:24:58;28.35;;;16.30;;
40339;SDS011;26044;50.864;20.658;2022-08-14T14:27:26;25.75;;;15.07;;
40339;SDS011;26044;50.864;20.658;2022-08-14T14:30:07;26.42;;;15.63;;
40339;SDS011;26044;50.864;20.658;2022-08-14T14:32:55;29.42;;;16.00;;
40339;SDS011;26044;50.864;20.658;2022-08-14T14:35:31;28.08;;;16.08;;
40339;SDS011;26044;50.864;20.658;2022-08-14T14:38:05;26.50;;;15.80;;
40339;SDS011;26044;50.864;20.658;2022-08-14T14:43:24;29.67;;;15.55;;
40339;SDS011;26044;50.864;20.658;2022-08-14T14:45:53;29.65;;;15.32;;
40339;SDS011;26044;50.864;20.658;2022-08-14T14:50:53;26.85;;;15.07;;
40339;SDS011;26044;50.864;20.658;2022-08-14T14:53:26;31.20;;;17.83;;
40339;SDS011;26044;50.864;20.658;2022-08-14T14:56:04;26.55;;;15.90;;
40339;SDS011;26044;50.864;20.658;2022-08-14T14:58:55;28.25;;;16.70;;
40339;SDS011;26044;50.864;20.658;2022-08-14T15:01:23;28.95;;;16.42;;
40339;SDS011;26044;50.864;20.658;2022-08-14T15:03:50;30.85;;;17.23;;
40339;SDS011;26044;50.864;20.658;2022-08-14T15:06:23;29.13;;;17.52;;
40339;SDS011;26044;50.864;20.658;2022-08-14T15:08:55;30.35;;;17.75;;
40339;SDS011;26044;50.864;20.658;2022-08-14T15:13:57;28.83;;;16.00;;
40339;SDS011;26044;50.864;20.658;2022-08-14T15:16:25;28.52;;;17.15;;
40339;SDS011;26044;50.864;20.658;2022-08-14T15:18:52;27.70;;;16.23;;
40339;SDS011;26044;50.864;20.658;2022-08-14T15:21:19;28.55;;;17.20;;
40339;SDS011;26044;50.864;20.658;2022-08-14T15:23:48;32.20;;;19.10;;
40339;SDS011;26044;50.864;20.658;2022-08-14T15:26:16;34.67;;;17.23;;
40339;SDS011;26044;50.864;20.658;2022-08-14T15:29:03;29.48;;;17.77;;
40339;SDS011;26044;50.864;20.658;2022-08-14T15:31:32;29.45;;;17.52;;
40339;SDS011;26044;50.864;20.658;2022-08-14T15:34:02;27.27;;;15.93;;
40339;SDS011;26044;50.864;20.658;2022-08-14T15:37:00;27.98;;;17.60;;
40339;SDS011;26044;50.864;20.658;2022-08-14T15:39:28;30.05;;;17.73;;
40339;SDS011;26044;50.864;20.658;2022-08-14T15:42:03;27.20;;;16.25;;
40339;SDS011;26044;50.864;20.658;2022-08-14T15:44:40;26.83;;;15.90;;
40339;SDS011;26044;50.864;20.658;2022-08-14T15:47:23;31.80;;;17.83;;